Airfield :
LOGIN :

Register | Disclaimer

   EN    FR    IT 

 










Legend :    VFR   Marginal VFR   IFR   Intensive IFR   Very Intensive IFR
Visi :
Ceiling :
>= 8 km
>= 3000ft
5 to 8 km
1000 to 3000 ft
1500m to 5 km
500 to 1000 ft
800 to 1500m
200 to 500 ft
< 800m
< 200 ft
Symbols :   Thunderstorms  Fog  Heavy snow  Heavy precipitations  Wind > 20 kt
SIGMETs :     Misc.  Thunderstorms  Icing  Turbulence  Mountain Waves  Volcanic Ashes






- Airport Elevation : 357 ft
- IATA code : TUF


LFOT - Tours

CURRENT METAR :
  • 021600Z AUTO 32008KT 280V040 CAVOK 12/M00 Q1016 NOSIG

EXPIRED METARs :
  • 021530Z AUTO 32008KT 300V360 CAVOK 11/M01 Q1016 NOSIG
  • 021500Z AUTO 32009KT 270V360 CAVOK 12/M01 Q1016 NOSIG
  • 021430Z AUTO 35007KT 270V040 CAVOK 12/M02 Q1016 NOSIG
  • 021400Z AUTO 33008KT 290V010 CAVOK 12/M01 Q1016 NOSIG
  • 021330Z AUTO 36008KT 320V040 CAVOK 12/00 Q1016 NOSIG

TAF TAF LFOT
Valid from the 02 at 12:00 until the 03 at 12:00 UTC


021100Z 0212/0312 36006KT CAVOK
BECMG 0218/0221 VRB04KT SCT045
PROB40
TEMPO 0301/0309 4000 BR SCT006 BKN025
PROB30
TEMPO 0303/0308 2000 BR BKN002
BECMG 0309/0312 32005KT BKN030



MET'MAP, your aeronautical weather chart ! - Copyright ORBIFLY December 2007 - Disclaimer

ORBIFLY MET'MAP TEAM :

Programming & Development : Alexandra Zaïnal
Concept & original design : Baudouin d'Aumeries
Assistance for programming : Marc-Olivier Méhu
Technical & hardware support : Manuel Goepfert

Contact : metmap@orbifly.com




SOURCES & CREDITS :

   NOAA